Time;durP1;ratioP1;P1;durP2;ratioP2;P2;SDS_P1;SDS_P2;PMS_P1;PMS_P2;Temp;Humidity;BMP_temperature;BMP_pressure;BME280_temperature;BME280_humidity;BME280_pressure;Samples;Min_cycle;Max_cycle;Signal;HPM_P1;HPM_P2
2022/05/09 00:00:21;;;;;;;19.42;3.83;;;6.90;99.90;;;;;;5025354;28;20220;-74
2022/05/09 00:02:47;;;;;;;11.45;3.47;;;6.90;99.90;;;;;;5028325;28;20103;-74
2022/05/09 00:05:17;;;;;;;9.27;2.88;;;6.90;99.90;;;;;;5027169;28;20049;-74
2022/05/09 00:07:43;;;;;;;10.95;3.38;;;6.90;99.90;;;;;;5026608;28;20060;-74
2022/05/09 00:10:20;;;;;;;7.88;3.25;;;6.90;99.90;;;;;;5027140;28;20053;-74
2022/05/09 00:12:46;;;;;;;8.75;3.70;;;6.90;99.90;;;;;;5023481;28;20041;-74
2022/05/09 00:15:13;;;;;;;10.82;3.67;;;6.90;99.90;;;;;;5026212;28;20056;-74
2022/05/09 00:17:39;;;;;;;9.98;3.75;;;6.90;99.90;;;;;;5028199;28;20076;-74
2022/05/09 00:20:06;;;;;;;12.70;3.95;;;6.90;99.90;;;;;;5026375;28;20049;-75
2022/05/09 00:22:44;;;;;;;11.00;3.50;;;6.90;99.90;;;;;;5027482;28;20060;-75
2022/05/09 00:25:10;;;;;;;6.72;3.75;;;6.80;99.90;;;;;;5027018;28;20056;-74
2022/05/09 00:27:36;;;;;;;11.10;3.75;;;6.80;99.90;;;;;;5027171;28;20049;-74
2022/05/09 00:30:01;;;;;;;12.13;3.70;;;6.80;99.90;;;;;;5027044;28;20408;-74
2022/05/09 00:32:27;;;;;;;7.20;3.50;;;6.80;99.90;;;;;;5028204;28;20099;-74
2022/05/09 00:34:53;;;;;;;14.15;4.65;;;6.80;99.90;;;;;;5026712;28;20115;-74
2022/05/09 00:37:19;;;;;;;19.88;3.85;;;6.70;99.90;;;;;;5027439;28;20042;-74
2022/05/09 00:39:46;;;;;;;10.15;3.15;;;6.80;99.90;;;;;;5026651;28;20131;-74
2022/05/09 00:42:13;;;;;;;14.68;4.20;;;6.80;99.90;;;;;;5027109;28;20084;-74
2022/05/09 00:44:39;;;;;;;12.85;3.90;;;6.80;99.90;;;;;;5027582;28;20056;-74
2022/05/09 00:47:05;;;;;;;11.43;3.25;;;6.80;99.90;;;;;;5026324;28;20089;-74
2022/05/09 00:49:43;;;;;;;10.25;3.47;;;6.70;99.90;;;;;;5025801;28;20084;-75
2022/05/09 00:52:14;;;;;;;11.65;3.45;;;6.70;99.90;;;;;;5025949;28;20084;-74
2022/05/09 00:54:47;;;;;;;9.95;3.50;;;6.60;99.90;;;;;;5026685;28;20049;-74
2022/05/09 00:57:20;;;;;;;12.13;4.10;;;6.60;99.90;;;;;;5026861;28;20060;-75
2022/05/09 00:59:49;;;;;;;6.15;2.97;;;6.60;99.90;;;;;;5025794;28;20045;-74
2022/05/09 01:02:15;;;;;;;11.32;3.60;;;6.50;99.90;;;;;;5026232;28;20056;-74
2022/05/09 01:04:56;;;;;;;7.53;3.45;;;6.50;99.90;;;;;;5027628;28;20057;-74
2022/05/09 01:07:23;;;;;;;9.85;3.90;;;6.50;99.90;;;;;;5026229;28;20041;-74
2022/05/09 01:09:48;;;;;;;9.68;3.97;;;6.40;99.90;;;;;;5025272;28;20576;-74
2022/05/09 01:12:23;;;;;;;8.98;3.53;;;6.40;99.90;;;;;;5026552;28;20068;-74
2022/05/09 01:14:49;;;;;;;8.93;3.38;;;6.40;99.90;;;;;;5024757;28;20478;-75
2022/05/09 01:17:16;;;;;;;9.60;3.60;;;6.40;99.90;;;;;;5025730;28;20057;-74
2022/05/09 01:19:44;;;;;;;9.13;3.53;;;6.40;99.90;;;;;;5021573;28;20162;-74
2022/05/09 01:22:23;;;;;;;14.30;3.88;;;6.30;99.90;;;;;;5025613;28;20047;-74
2022/05/09 01:24:49;;;;;;;8.70;3.88;;;6.30;99.90;;;;;;5026726;28;20060;-74
2022/05/09 01:27:15;;;;;;;9.40;3.47;;;6.30;99.90;;;;;;5026050;28;20045;-74
2022/05/09 01:30:08;;;;;;;15.27;4.18;;;6.30;99.90;;;;;;5023955;28;20057;-74
2022/05/09 01:32:38;;;;;;;11.25;3.83;;;6.30;99.90;;;;;;5022961;28;20081;-74
2022/05/09 01:35:17;;;;;;;9.23;3.95;;;6.30;99.90;;;;;;5023301;28;20479;-74
2022/05/09 01:37:47;;;;;;;9.25;3.30;;;6.30;99.90;;;;;;5021755;28;20072;-74
2022/05/09 01:40:13;;;;;;;10.30;4.57;;;6.30;99.90;;;;;;5025901;28;20045;-74
2022/05/09 01:42:43;;;;;;;8.02;3.58;;;6.30;99.90;;;;;;5026534;28;20044;-74
2022/05/09 01:45:11;;;;;;;10.05;3.38;;;6.20;99.90;;;;;;5025217;28;20037;-74
2022/05/09 01:50:21;;;;;;;8.45;3.50;;;7.60;99.90;;;;;;5023916;28;20065;-74
2022/05/09 01:52:46;;;;;;;13.05;3.92;;;6.10;99.90;;;;;;5026176;28;20048;-74
2022/05/09 01:55:12;;;;;;;9.13;3.60;;;6.10;99.90;;;;;;5025464;28;20138;-74
2022/05/09 01:57:38;;;;;;;12.15;4.07;;;6.10;99.90;;;;;;5024383;28;20049;-75
2022/05/09 02:00:06;;;;;;;9.23;4.10;;;6.10;99.90;;;;;;5024786;28;20488;-75
2022/05/09 02:02:31;;;;;;;7.40;3.35;;;6.10;99.90;;;;;;5026107;28;20073;-74
2022/05/09 02:04:57;;;;;;;10.32;3.13;;;6.10;99.90;;;;;;5023452;28;20095;-75
2022/05/09 02:07:23;;;;;;;9.55;3.72;;;6.00;99.90;;;;;;5026318;28;20197;-74
2022/05/09 02:09:49;;;;;;;10.23;3.97;;;6.00;99.90;;;;;;5025833;28;20041;-74
2022/05/09 02:12:16;;;;;;;7.05;3.53;;;5.40;99.90;;;;;;5024999;28;20033;-74
2022/05/09 02:14:43;;;;;;;6.80;3.10;;;6.00;99.90;;;;;;5024559;28;20099;-74
2022/05/09 02:17:10;;;;;;;5.82;3.20;;;5.90;99.90;;;;;;5024038;28;20402;-74
2022/05/09 02:19:36;;;;;;;9.80;3.55;;;5.80;99.90;;;;;;5024925;28;20045;-74
2022/05/09 02:22:02;;;;;;;10.73;3.85;;;5.80;99.90;;;;;;5023061;28;20051;-74
2022/05/09 02:24:29;;;;;;;11.52;3.97;;;5.80;99.90;;;;;;5024032;28;20099;-74
2022/05/09 02:26:58;;;;;;;11.70;3.90;;;5.80;99.90;;;;;;5025293;28;20088;-74
2022/05/09 02:29:25;;;;;;;12.00;4.20;;;5.80;99.90;;;;;;5022379;28;20450;-74
2022/05/09 02:31:51;;;;;;;4.45;3.05;;;5.90;99.90;;;;;;5025584;28;20091;-74
2022/05/09 02:34:16;;;;;;;8.50;3.67;;;5.80;99.90;;;;;;5023165;28;20053;-74
2022/05/09 02:36:42;;;;;;;7.20;3.80;;;5.80;99.90;;;;;;5025662;28;20052;-74
2022/05/09 02:39:08;;;;;;;8.52;3.70;;;5.80;99.90;;;;;;5024592;28;20038;-75
2022/05/09 02:41:34;;;;;;;8.43;3.30;;;5.80;99.90;;;;;;5025469;28;20128;-74
2022/05/09 02:44:00;;;;;;;12.63;5.03;;;5.70;99.90;;;;;;5024721;28;20483;-74
2022/05/09 02:46:26;;;;;;;5.90;3.50;;;5.80;99.90;;;;;;5025450;28;20045;-74
2022/05/09 02:48:52;;;;;;;8.75;3.58;;;5.80;99.90;;;;;;5025063;28;20079;-74
2022/05/09 02:51:17;;;;;;;11.88;3.65;;;5.70;99.90;;;;;;5025434;28;20561;-74
2022/05/09 02:53:43;;;;;;;7.82;3.30;;;5.70;99.90;;;;;;5022969;28;20068;-74
2022/05/09 02:56:10;;;;;;;5.25;2.80;;;5.70;99.90;;;;;;5023501;28;20136;-74
2022/05/09 02:58:36;;;;;;;8.60;3.20;;;5.70;99.90;;;;;;5024704;28;20081;-74
2022/05/09 03:01:03;;;;;;;5.15;2.78;;;5.70;99.90;;;;;;5022739;28;20098;-74
2022/05/09 03:06:24;;;;;;;5.57;2.35;;;5.70;99.90;;;;;;4971650;28;20078;-74
2022/05/09 03:08:50;;;;;;;4.70;2.72;;;5.70;99.90;;;;;;5024480;28;20073;-74
2022/05/09 03:11:15;;;;;;;5.45;2.63;;;5.60;99.90;;;;;;5022411;28;20116;-74
2022/05/09 03:13:41;;;;;;;9.15;3.30;;;5.60;99.90;;;;;;5028829;28;20042;-74
2022/05/09 03:16:08;;;;;;;9.18;2.72;;;5.70;99.90;;;;;;5026478;28;20045;-74
2022/05/09 03:18:34;;;;;;;6.85;2.90;;;5.70;99.90;;;;;;5028632;28;20515;-74
2022/05/09 03:21:01;;;;;;;5.50;3.05;;;5.70;99.90;;;;;;5028509;28;20033;-74
2022/05/09 03:23:26;;;;;;;4.63;2.60;;;5.80;99.90;;;;;;5028874;28;20045;-73
2022/05/09 03:25:52;;;;;;;7.60;3.15;;;5.70;99.90;;;;;;5028571;28;20103;-73
2022/05/09 03:28:21;;;;;;;7.57;2.83;;;5.80;99.90;;;;;;5028621;28;20060;-74
2022/05/09 03:30:49;;;;;;;8.38;3.38;;;5.70;99.90;;;;;;5026919;28;20038;-73
2022/05/09 03:33:15;;;;;;;5.70;2.70;;;5.70;99.90;;;;;;5028423;28;20048;-74
2022/05/09 03:35:42;;;;;;;5.07;3.00;;;5.70;99.90;;;;;;5026689;28;20045;-74
2022/05/09 03:38:08;;;;;;;9.15;3.35;;;5.80;99.90;;;;;;5028149;28;20034;-74
2022/05/09 03:40:34;;;;;;;7.63;3.20;;;5.70;99.90;;;;;;5027336;28;20042;-74
2022/05/09 03:43:03;;;;;;;7.20;2.80;;;5.70;99.90;;;;;;5025796;28;20045;-73
2022/05/09 03:45:29;;;;;;;8.13;2.72;;;5.80;99.90;;;;;;5027238;28;20037;-73
2022/05/09 03:47:54;;;;;;;3.60;2.70;;;5.70;99.90;;;;;;5028791;28;20094;-74
2022/05/09 03:50:21;;;;;;;6.90;3.25;;;5.70;99.90;;;;;;5026559;28;20122;-74
2022/05/09 03:52:46;;;;;;;5.15;2.67;;;5.70;99.90;;;;;;5027146;28;20124;-74
2022/05/09 03:55:12;;;;;;;6.22;3.17;;;5.60;99.90;;;;;;5027634;28;20137;-74
2022/05/09 03:57:52;;;;;;;6.13;3.22;;;5.60;99.90;;;;;;5027753;28;20041;-74
2022/05/09 04:00:20;;;;;;;7.22;3.97;;;5.60;99.90;;;;;;5025721;28;20461;-74
2022/05/09 04:02:46;;;;;;;11.63;3.55;;;5.60;99.90;;;;;;5026725;28;20132;-73
2022/05/09 04:05:16;;;;;;;5.38;2.78;;;5.60;99.90;;;;;;5027020;28;20087;-74
2022/05/09 04:08:02;;;;;;;6.20;2.67;;;5.60;99.90;;;;;;5028178;28;20114;-74
2022/05/09 04:10:31;;;;;;;7.75;2.92;;;5.60;99.90;;;;;;5023394;28;20049;-74
2022/05/09 04:12:57;;;;;;;17.73;3.63;;;5.50;99.90;;;;;;5026527;28;20041;-73
2022/05/09 04:18:09;;;;;;;11.80;3.17;;;4.70;99.90;;;;;;5025556;28;20125;-73
2022/05/09 04:20:36;;;;;;;7.45;3.05;;;5.60;99.90;;;;;;5026367;28;20049;-74
2022/05/09 04:23:03;;;;;;;9.13;3.45;;;5.50;99.90;;;;;;5026897;28;20037;-74
2022/05/09 04:25:31;;;;;;;5.03;2.28;;;5.50;99.90;;;;;;5023727;28;20404;-74
2022/05/09 04:27:58;;;;;;;6.70;2.88;;;5.50;99.90;;;;;;5028024;28;20495;-73
2022/05/09 04:30:24;;;;;;;4.10;2.45;;;5.50;99.90;;;;;;5028553;28;20090;-73
2022/05/09 04:32:50;;;;;;;9.10;2.80;;;5.50;99.90;;;;;;5027167;28;20431;-74
2022/05/09 04:35:19;;;;;;;6.78;2.63;;;5.50;99.90;;;;;;5024582;28;20053;-73
2022/05/09 04:37:47;;;;;;;7.97;3.13;;;5.50;99.90;;;;;;5027681;28;20045;-74
2022/05/09 04:40:18;;;;;;;4.28;2.35;;;5.60;99.90;;;;;;5024889;28;20071;-73
2022/05/09 04:42:46;;;;;;;3.53;2.80;;;5.50;99.90;;;;;;5027599;28;20041;-74
2022/05/09 04:45:14;;;;;;;9.57;2.95;;;5.60;99.90;;;;;;5027154;28;20038;-73
2022/05/09 04:47:40;;;;;;;7.10;2.50;;;5.60;99.90;;;;;;5025092;28;20079;-74
2022/05/09 04:50:08;;;;;;;6.82;3.25;;;5.70;99.90;;;;;;5026918;28;20061;-73
2022/05/09 04:52:34;;;;;;;6.90;2.72;;;5.70;99.90;;;;;;5026180;28;20049;-73
2022/05/09 04:54:59;;;;;;;8.60;3.05;;;5.80;99.90;;;;;;5025855;28;20408;-73
2022/05/09 04:57:25;;;;;;;6.97;3.22;;;5.80;99.90;;;;;;5026599;28;20064;-73
2022/05/09 04:59:51;;;;;;;6.43;3.38;;;5.90;99.90;;;;;;5026505;28;20146;-74
2022/05/09 05:02:16;;;;;;;5.80;3.17;;;5.90;99.90;;;;;;5026202;28;20765;-73
2022/05/09 05:04:42;;;;;;;11.85;3.63;;;6.00;99.90;;;;;;5022847;28;20407;-73
2022/05/09 05:07:08;;;;;;;12.43;3.25;;;6.00;99.90;;;;;;5025664;28;20033;-73
2022/05/09 05:09:35;;;;;;;9.52;3.75;;;6.00;99.90;;;;;;5027116;28;20045;-74
2022/05/09 05:12:01;;;;;;;9.48;3.10;;;6.10;99.90;;;;;;5023724;28;20548;-73
2022/05/09 05:14:26;;;;;;;12.13;3.53;;;6.20;99.90;;;;;;5026811;28;20051;-72
2022/05/09 05:17:01;;;;;;;6.25;3.15;;;6.20;99.90;;;;;;5025340;28;20049;-73
2022/05/09 05:19:28;;;;;;;10.57;3.40;;;6.30;99.90;;;;;;5026188;28;20555;-74
2022/05/09 05:21:56;;;;;;;9.60;3.63;;;6.30;99.90;;;;;;5024914;28;20566;-73
2022/05/09 05:24:22;;;;;;;10.73;4.15;;;6.50;99.90;;;;;;5041395;28;20053;-75
2022/05/09 05:26:48;;;;;;;9.77;3.95;;;6.50;99.90;;;;;;5026550;28;20045;-77
2022/05/09 05:29:15;;;;;;;7.40;3.75;;;6.60;99.90;;;;;;5025534;28;20057;-74
2022/05/09 05:31:41;;;;;;;10.82;4.10;;;6.70;99.90;;;;;;5026757;28;20146;-74
2022/05/09 05:34:06;;;;;;;10.80;3.72;;;6.80;99.90;;;;;;5023117;28;20072;-72
2022/05/09 05:36:32;;;;;;;11.98;4.60;;;6.80;99.90;;;;;;5023502;28;20049;-72
2022/05/09 05:38:57;;;;;;;11.48;4.82;;;6.90;99.90;;;;;;5026164;28;20048;-73
2022/05/09 05:41:23;;;;;;;15.13;4.82;;;7.00;99.90;;;;;;5026863;28;20128;-73
2022/05/09 05:43:49;;;;;;;20.60;4.90;;;7.10;99.90;;;;;;5025758;28;20388;-73
2022/05/09 05:46:15;;;;;;;9.48;4.78;;;7.20;99.90;;;;;;5021237;28;20041;-73
2022/05/09 05:48:41;;;;;;;9.13;4.40;;;7.20;99.90;;;;;;5026695;28;20052;-72
2022/05/09 05:51:06;;;;;;;9.32;4.50;;;7.30;99.90;;;;;;5023776;28;20143;-74
2022/05/09 05:53:34;;;;;;;10.30;5.22;;;7.40;99.90;;;;;;5026002;28;20512;-74
2022/05/09 05:56:00;;;;;;;26.67;4.75;;;7.50;99.90;;;;;;5025533;28;20037;-74
2022/05/09 05:58:27;;;;;;;7.60;4.28;;;7.50;99.90;;;;;;5024134;28;20052;-74
2022/05/09 06:00:53;;;;;;;7.80;4.57;;;7.60;99.90;;;;;;5025583;28;20077;-74
2022/05/09 06:03:20;;;;;;;10.32;4.80;;;7.70;99.90;;;;;;5024347;28;20148;-74
2022/05/09 06:05:46;;;;;;;12.82;4.45;;;7.70;99.90;;;;;;5024557;28;20050;-74
2022/05/09 06:08:11;;;;;;;10.07;4.38;;;7.80;99.90;;;;;;5023711;28;20053;-74
2022/05/09 06:10:37;;;;;;;19.60;5.35;;;7.90;99.90;;;;;;5021305;28;20100;-74
2022/05/09 06:13:04;;;;;;;15.18;4.95;;;7.90;99.90;;;;;;5025122;28;20045;-74
2022/05/09 06:15:32;;;;;;;16.90;5.15;;;8.00;99.90;;;;;;5024677;28;20138;-74
2022/05/09 06:18:07;;;;;;;12.23;5.40;;;8.10;99.90;;;;;;5023709;28;20064;-74
2022/05/09 06:20:35;;;;;;;16.63;5.47;;;8.20;99.90;;;;;;5023861;28;20056;-74
2022/05/09 06:23:03;;;;;;;13.82;6.10;;;8.30;99.90;;;;;;5025161;28;20041;-74
2022/05/09 06:25:30;;;;;;;14.80;5.43;;;8.50;99.90;;;;;;5025246;28;20041;-74
2022/05/09 06:27:56;;;;;;;16.45;6.18;;;8.60;99.90;;;;;;5026003;28;20117;-74
2022/05/09 06:30:23;;;;;;;12.32;5.78;;;8.60;99.90;;;;;;5025275;28;20546;-74
2022/05/09 06:32:49;;;;;;;12.48;6.53;;;8.80;99.90;;;;;;5023749;28;20807;-74
2022/05/09 06:35:23;;;;;;;21.40;6.63;;;9.00;99.90;;;;;;5021585;28;20052;-74
2022/05/09 06:38:04;;;;;;;19.20;6.07;;;9.20;99.90;;;;;;5019991;28;20091;-75
2022/05/09 06:40:32;;;;;;;16.40;5.68;;;9.30;99.90;;;;;;5019960;28;20045;-74
2022/05/09 06:42:58;;;;;;;15.65;6.05;;;9.40;99.90;;;;;;5022654;28;20048;-75
2022/05/09 06:45:25;;;;;;;11.85;5.45;;;9.60;99.90;;;;;;5022545;28;20143;-73
2022/05/09 06:47:53;;;;;;;37.10;7.53;;;9.70;99.90;;;;;;5024269;28;20521;-74
2022/05/09 06:50:22;;;;;;;17.73;5.82;;;9.80;99.90;;;;;;5021243;28;20099;-74
2022/05/09 06:52:48;;;;;;;24.65;5.60;;;9.90;99.90;;;;;;5025273;28;20053;-74
2022/05/09 06:55:14;;;;;;;13.50;5.93;;;10.00;99.90;;;;;;5025671;28;20667;-73
2022/05/09 06:57:42;;;;;;;26.30;6.53;;;10.10;99.90;;;;;;5024875;28;20046;-74
2022/05/09 07:00:12;;;;;;;12.38;6.15;;;10.20;99.90;;;;;;5024929;28;20136;-75
2022/05/09 07:02:38;;;;;;;15.50;5.97;;;10.30;99.90;;;;;;5026294;28;20504;-75
2022/05/09 07:05:06;;;;;;;15.80;6.20;;;10.40;99.90;;;;;;5024184;28;20053;-74
2022/05/09 07:07:31;;;;;;;16.60;5.82;;;10.50;99.90;;;;;;5022861;28;20102;-74
2022/05/09 07:09:57;;;;;;;16.08;5.93;;;10.70;99.90;;;;;;5024864;28;20049;-72
2022/05/09 07:12:22;;;;;;;18.33;6.45;;;9.70;99.90;;;;;;5026347;28;20045;-75
2022/05/09 07:14:48;;;;;;;14.75;5.78;;;10.90;99.90;;;;;;5025376;28;20591;-73
2022/05/09 07:17:14;;;;;;;20.13;5.78;;;11.00;99.90;;;;;;5026139;28;20042;-73
2022/05/09 07:19:39;;;;;;;12.30;4.85;;;11.10;99.90;;;;;;5024221;28;20439;-73
2022/05/09 07:22:05;;;;;;;12.40;5.75;;;11.20;99.90;;;;;;5023825;28;20838;-73
2022/05/09 07:24:31;;;;;;;16.05;6.25;;;11.40;99.90;;;;;;5025111;28;20041;-73
2022/05/09 07:26:56;;;;;;;15.35;5.57;;;11.50;99.90;;;;;;5024252;28;20045;-72
2022/05/09 07:29:22;;;;;;;15.55;5.93;;;12.10;99.90;;;;;;5023383;28;20041;-72
2022/05/09 07:31:47;;;;;;;16.90;5.55;;;11.70;99.90;;;;;;5023525;28;20053;-72
2022/05/09 07:34:13;;;;;;;17.55;6.45;;;11.70;99.90;;;;;;5026266;28;20145;-72
2022/05/09 07:36:39;;;;;;;16.08;5.43;;;11.90;99.90;;;;;;5027317;28;20329;-74
2022/05/09 07:39:05;;;;;;;11.80;4.82;;;12.00;99.90;;;;;;5031274;28;20049;-73
2022/05/09 07:41:31;;;;;;;14.23;5.47;;;12.20;99.90;;;;;;5026999;28;20042;-73
2022/05/09 07:43:57;;;;;;;15.48;5.38;;;12.30;99.90;;;;;;5023003;28;20049;-74
2022/05/09 07:46:23;;;;;;;13.27;4.70;;;12.40;99.90;;;;;;5024091;28;20048;-73
2022/05/09 07:48:49;;;;;;;12.68;5.15;;;12.50;99.90;;;;;;5024187;28;20533;-73
2022/05/09 07:51:15;;;;;;;13.48;4.25;;;12.70;99.90;;;;;;5023999;28;20484;-73
2022/05/09 07:53:41;;;;;;;10.40;4.32;;;12.70;99.90;;;;;;5024456;28;20072;-73
2022/05/09 07:56:08;;;;;;;9.70;4.18;;;12.80;99.90;;;;;;5022353;28;20042;-74
2022/05/09 07:58:35;;;;;;;13.10;4.05;;;12.90;99.90;;;;;;5028887;28;20049;-74
2022/05/09 08:01:02;;;;;;;12.27;5.13;;;13.00;99.90;;;;;;5042680;28;20056;-75
2022/05/09 08:03:29;;;;;;;9.68;4.25;;;13.10;99.90;;;;;;5029066;28;20049;-75
2022/05/09 08:05:59;;;;;;;19.23;4.30;;;13.30;99.90;;;;;;5031062;28;20055;-74
2022/05/09 08:08:28;;;;;;;13.30;4.22;;;13.30;99.90;;;;;;5029593;28;20472;-75
2022/05/09 08:10:55;;;;;;;12.75;4.38;;;13.40;99.90;;;;;;5028535;28;20132;-72
2022/05/09 08:13:21;;;;;;;15.65;4.53;;;13.50;99.90;;;;;;5027189;28;20042;-74
2022/05/09 08:15:48;;;;;;;13.82;4.63;;;13.60;99.90;;;;;;5027514;28;20559;-71
2022/05/09 08:18:14;;;;;;;11.18;4.53;;;13.70;99.90;;;;;;5027755;28;20045;-71
2022/05/09 08:20:43;;;;;;;14.25;3.97;;;13.80;99.90;;;;;;5029401;28;20446;-77
2022/05/09 08:23:11;;;;;;;5.80;3.10;;;13.90;99.90;;;;;;5028914;28;20072;-72
2022/05/09 08:25:42;;;;;;;18.15;3.92;;;14.00;99.90;;;;;;5020476;28;20834;-75
2022/05/09 08:28:08;;;;;;;12.23;4.10;;;14.10;99.90;;;;;;5021487;28;20046;-75
2022/05/09 08:30:35;;;;;;;14.25;4.47;;;14.20;99.90;;;;;;5027444;28;20054;-75
2022/05/09 08:33:04;;;;;;;10.85;3.90;;;14.30;99.90;;;;;;5026221;28;20380;-75
2022/05/09 08:35:30;;;;;;;13.80;4.18;;;14.40;99.90;;;;;;5026408;28;20049;-74
2022/05/09 08:37:56;;;;;;;14.30;3.95;;;14.50;99.90;;;;;;5025363;28;20068;-74
2022/05/09 08:40:36;;;;;;;11.77;4.18;;;14.60;99.90;;;;;;5027136;28;20081;-74
2022/05/09 08:43:40;;;;;;;10.77;4.45;;;14.70;99.90;;;;;;5025541;28;20053;-74
2022/05/09 08:46:20;;;;;;;13.18;3.28;;;14.80;99.90;;;;;;5024586;28;20045;-74
2022/05/09 08:49:13;;;;;;;12.15;3.63;;;14.90;99.90;;;;;;5025237;28;20136;-75
2022/05/09 08:52:09;;;;;;;11.13;3.50;;;15.00;99.90;;;;;;5026036;28;20491;-72
2022/05/09 08:54:36;;;;;;;9.00;3.22;;;15.20;99.90;;;;;;5018986;28;20127;-74
2022/05/09 08:57:07;;;;;;;10.88;2.70;;;15.20;99.90;;;;;;5015284;28;20588;-70
2022/05/09 08:59:38;;;;;;;8.25;2.83;;;15.30;99.90;;;;;;5013723;28;20499;-70
2022/05/09 09:02:40;;;;;;;11.80;3.10;;;15.40;99.90;;;;;;5024042;28;20045;-75
2022/05/09 09:05:09;;;;;;;;;;;15.60;99.90;;;;;;5010976;28;20495;-76
2022/05/09 09:07:41;;;;;;;8.20;3.05;;;15.70;99.90;;;;;;5035836;28;19927;-73
2022/05/09 09:10:29;;;;;;;12.65;3.17;;;15.80;99.90;;;;;;5024931;28;20041;-77
2022/05/09 09:13:28;;;;;;;9.45;3.33;;;15.80;99.90;;;;;;5026154;28;20076;-76
2022/05/09 09:16:00;;;;;;;11.35;2.50;;;15.90;99.90;;;;;;5026405;28;20041;-76
2022/05/09 09:18:45;;;;;;;15.57;3.10;;;16.10;99.90;;;;;;5025940;28;20156;-76
2022/05/09 09:21:42;;;;;;;6.97;2.38;;;16.20;99.90;;;;;;5025290;28;20060;-76
2022/05/09 09:24:29;;;;;;;10.00;2.90;;;16.30;99.90;;;;;;5026649;28;20185;-76
2022/05/09 09:27:05;;;;;;;9.48;2.88;;;16.40;99.90;;;;;;5026580;28;20057;-77
2022/05/09 09:29:40;;;;;;;11.15;2.67;;;16.50;99.90;;;;;;5025931;28;20146;-76
2022/05/09 09:32:11;;;;;;;9.07;2.03;;;16.60;99.90;;;;;;5027348;28;20045;-76
2022/05/09 09:34:48;;;;;;;12.40;3.67;;;16.70;99.90;;;;;;5026142;28;20567;-76
2022/05/09 09:37:19;;;;;;;7.10;2.15;;;16.80;99.90;;;;;;5027367;28;20052;-76
2022/05/09 09:39:45;;;;;;;5.72;2.03;;;16.80;99.90;;;;;;5026388;28;20484;-74
2022/05/09 09:42:12;;;;;;;10.75;2.97;;;16.90;99.60;;;;;;5021207;28;20056;-75
2022/05/09 09:44:43;;;;;;;11.23;2.92;;;17.00;98.70;;;;;;5016673;28;20169;-75
2022/05/09 09:47:10;;;;;;;5.38;2.63;;;17.00;96.80;;;;;;5008992;28;20034;-75
2022/05/09 09:49:41;;;;;;;10.95;2.63;;;17.00;96.50;;;;;;5006621;28;20053;-74
2022/05/09 09:52:23;;;;;;;8.88;2.35;;;17.10;95.30;;;;;;5005672;28;20273;-75
2022/05/09 09:54:56;;;;;;;;;;;17.20;94.20;;;;;;5007816;28;20220;-74
2022/05/09 09:57:29;;;;;;;;;;;17.30;97.60;;;;;;5005321;28;19922;-75
2022/05/09 09:59:57;;;;;;;9.90;2.65;;;17.40;95.10;;;;;;5006164;28;19972;-74
2022/05/09 10:02:28;;;;;;;6.95;2.67;;;17.40;96.20;;;;;;5005069;28;20477;-74
2022/05/09 10:04:55;;;;;;;12.70;2.60;;;17.30;93.30;;;;;;5007085;28;20038;-74
2022/05/09 10:07:33;;;;;;;10.05;3.33;;;17.40;90.00;;;;;;5004953;28;20193;-75
2022/05/09 10:10:10;;;;;;;10.98;3.10;;;17.40;82.40;;;;;;5004722;28;20123;-75
2022/05/09 10:12:39;;;;;;;10.40;3.08;;;17.50;85.20;;;;;;5005698;28;20370;-74
2022/05/09 10:15:26;;;;;;;4.88;2.42;;;17.50;85.30;;;;;;5005417;28;20065;-76
2022/05/09 10:17:52;;;;;;;7.90;2.95;;;17.60;79.30;;;;;;5005412;28;20632;-74
2022/05/09 10:20:40;;;;;;;5.50;2.55;;;17.70;78.90;;;;;;5012556;28;20400;-73
2022/05/09 10:26:21;;;;;;;8.93;2.78;;;17.80;77.60;;;;;;5026281;28;20049;-73
2022/05/09 10:28:49;;;;;;;10.27;2.78;;;18.00;72.70;;;;;;5026720;28;20096;-74
2022/05/09 10:31:23;;;;;;;7.15;2.28;;;18.00;70.80;;;;;;5025248;28;20132;-73
2022/05/09 10:34:20;;;;;;;3.90;2.40;;;18.10;72.40;;;;;;5026385;28;20063;-73
2022/05/09 10:37:06;;;;;;;9.73;2.05;;;18.20;68.40;;;;;;5025292;28;20483;-74
2022/05/09 10:39:35;;;;;;;12.48;2.60;;;18.20;69.50;;;;;;5025739;28;20061;-75
2022/05/09 10:42:07;;;;;;;7.80;2.28;;;18.30;70.60;;;;;;5025932;28;20048;-74
2022/05/09 10:44:42;;;;;;;10.60;2.08;;;18.40;68.40;;;;;;5025513;28;20392;-74
2022/05/09 10:47:17;;;;;;;5.13;2.20;;;18.50;66.80;;;;;;5005486;28;20041;-77
2022/05/09 10:49:52;;;;;;;6.68;2.53;;;18.60;63.20;;;;;;5006824;28;20049;-77
2022/05/09 10:52:41;;;;;;;5.50;1.95;;;18.60;62.20;;;;;;5005693;28;20050;-76
2022/05/09 10:55:26;;;;;;;5.82;2.20;;;18.60;64.00;;;;;;5010105;28;20081;-76
2022/05/09 10:58:07;;;;;;;4.13;1.80;;;18.60;62.60;;;;;;5015123;28;20404;-76
2022/05/09 11:00:37;;;;;;;13.15;2.65;;;18.60;62.00;;;;;;5019860;28;20049;-75
2022/05/09 11:03:08;;;;;;;3.78;1.80;;;18.70;64.30;;;;;;5022627;28;20049;-76
2022/05/09 11:06:13;;;;;;;6.50;2.13;;;18.80;63.30;;;;;;5024840;28;20045;-76
2022/05/09 11:09:06;;;;;;;5.50;2.22;;;18.80;61.30;;;;;;5017091;28;20499;-76
2022/05/09 11:11:51;;;;;;;11.40;2.45;;;18.90;62.10;;;;;;5021185;28;20099;-76
2022/05/09 11:14:50;;;;;;;8.52;2.33;;;19.00;61.10;;;;;;5016873;28;20108;-76
2022/05/09 11:17:15;;;;;;;5.50;2.13;;;19.10;59.40;;;;;;5044536;28;20044;-76
2022/05/09 11:19:58;;;;;;;4.78;1.98;;;19.10;62.40;;;;;;5045382;28;20094;-76
2022/05/09 11:22:38;;;;;;;6.30;2.05;;;19.20;61.10;;;;;;5044541;28;20087;-76
2022/05/09 11:25:32;;;;;;;5.93;2.17;;;19.30;61.20;;;;;;5020818;28;20852;-76
2022/05/09 11:28:16;;;;;;;8.18;2.15;;;19.40;63.50;;;;;;5021363;28;20048;-76
2022/05/09 11:30:50;;;;;;;7.15;2.30;;;19.50;63.90;;;;;;5020391;28;20042;-76
2022/05/09 11:33:37;;;;;;;5.78;2.00;;;19.50;62.60;;;;;;5014034;28;20041;-76
2022/05/09 11:36:41;;;;;;;5.88;2.40;;;19.50;61.50;;;;;;5020077;28;20124;-76
2022/05/09 11:39:26;;;;;;;5.25;2.63;;;19.50;61.00;;;;;;5025303;28;20056;-76
2022/05/09 11:45:13;;;;;;;9.63;2.30;;;19.70;62.80;;;;;;5019240;28;20058;-76
2022/05/09 11:48:35;;;;;;;6.07;2.45;;;19.70;63.00;;;;;;5023187;28;20088;-77
2022/05/09 11:51:27;;;;;;;6.00;1.98;;;19.90;62.00;;;;;;4939220;28;20527;-77
2022/05/09 11:53:59;;;;;;;4.90;2.23;;;19.90;61.90;;;;;;4916753;29;20134;-76
2022/05/09 11:56:25;;;;;;;7.03;2.22;;;19.90;61.60;;;;;;4993740;28;20363;-76
2022/05/09 11:58:51;;;;;;;8.43;2.45;;;20.00;62.70;;;;;;5009224;28;20045;-76
2022/05/09 12:01:56;;;;;;;6.13;2.30;;;20.00;61.60;;;;;;5007937;28;20389;-76
2022/05/09 12:04:30;;;;;;;6.40;2.33;;;20.10;60.70;;;;;;5009046;28;20132;-77
2022/05/09 12:06:56;;;;;;;8.95;2.58;;;20.20;61.20;;;;;;5008094;28;20054;-76
2022/05/09 12:09:53;;;;;;;7.07;2.05;;;20.30;61.60;;;;;;5007009;28;20045;-76
2022/05/09 12:12:36;;;;;;;7.85;2.80;;;20.30;58.70;;;;;;5008038;28;20849;-76
2022/05/09 12:15:04;;;;;;;6.70;2.63;;;20.40;58.20;;;;;;5007798;28;20053;-77
2022/05/09 12:17:37;;;;;;;8.43;2.45;;;20.40;59.70;;;;;;5023867;28;20455;-77
2022/05/09 12:20:13;;;;;;;11.32;2.88;;;20.40;58.70;;;;;;5028870;28;20099;-77
2022/05/09 12:22:40;;;;;;;5.03;2.35;;;20.40;57.90;;;;;;5027875;28;20068;-77
2022/05/09 12:25:36;;;;;;;4.18;2.10;;;20.50;58.50;;;;;;5028010;28;20482;-77
2022/05/09 12:28:17;;;;;;;8.35;2.03;;;20.60;57.90;;;;;;5022665;28;20491;-76
2022/05/09 12:30:52;;;;;;;8.43;2.20;;;20.60;58.80;;;;;;5028111;28;20053;-77
2022/05/09 12:33:44;;;;;;;9.70;2.00;;;20.60;55.90;;;;;;5023323;28;20506;-77
2022/05/09 12:36:46;;;;;;;7.78;2.05;;;20.70;57.80;;;;;;5028147;28;20127;-76
2022/05/09 12:39:16;;;;;;;9.77;2.33;;;20.80;57.60;;;;;;4969580;28;20054;-77
2022/05/09 12:41:52;;;;;;;11.82;2.55;;;21.30;57.40;;;;;;5021371;28;20052;-78
2022/05/09 12:44:44;;;;;;;10.82;2.53;;;20.30;55.70;;;;;;5027120;28;20582;-77
2022/05/09 12:47:29;;;;;;;7.97;2.40;;;20.80;56.40;;;;;;5028032;28;20415;-76
2022/05/09 12:50:24;;;;;;;6.78;2.10;;;20.90;54.20;;;;;;5027545;28;20081;-77
2022/05/09 12:52:58;;;;;;;7.35;1.85;;;20.90;54.70;;;;;;5018828;28;20065;-76
2022/05/09 12:55:52;;;;;;;7.22;2.72;;;21.00;56.20;;;;;;5026834;28;20100;-76
2022/05/09 12:58:34;;;;;;;6.88;1.95;;;21.10;56.10;;;;;;5026093;28;20116;-76
2022/05/09 13:01:15;;;;;;;4.37;2.07;;;21.20;57.70;;;;;;5027838;28;20052;-77
2022/05/09 13:03:51;;;;;;;5.72;2.00;;;21.40;58.60;;;;;;5027192;28;20813;-77
2022/05/09 13:06:21;;;;;;;8.75;1.83;;;21.40;55.00;;;;;;5027422;28;20052;-77
2022/05/09 13:08:48;;;;;;;10.82;2.95;;;21.50;56.90;;;;;;5027318;28;20492;-77
2022/05/09 13:11:21;;;;;;;5.90;2.25;;;21.50;56.60;;;;;;5026765;28;20060;-77
2022/05/09 13:14:06;;;;;;;6.38;2.00;;;21.60;57.10;;;;;;5027117;28;20045;-77
2022/05/09 13:16:38;;;;;;;8.48;1.73;;;22.60;57.20;;;;;;5027007;28;20141;-77
2022/05/09 13:19:05;;;;;;;8.48;2.15;;;21.80;56.00;;;;;;5027459;28;20488;-77
2022/05/09 13:21:37;;;;;;;6.18;2.10;;;21.90;55.00;;;;;;5025426;28;20084;-77
2022/05/09 13:24:06;;;;;;;4.93;2.00;;;21.90;54.60;;;;;;5026520;28;20056;-77